sensor_id;sensor_type;location;lat;lon;timestamp;pressure;altitude;pressure_sealevel;temperature;humidity
50394;BME280;36308;46.312;25.288;2023-08-21T00:01:07;96520.63;;;19.94;58.30
50394;BME280;36308;46.312;25.288;2023-08-21T00:03:33;96530.94;;;19.97;58.19
50394;BME280;36308;46.312;25.288;2023-08-21T00:05:59;96523.97;;;19.91;58.29
50394;BME280;36308;46.312;25.288;2023-08-21T00:08:24;96516.72;;;19.86;58.39
50394;BME280;36308;46.312;25.288;2023-08-21T00:10:50;96518.94;;;19.84;58.50
50394;BME280;36308;46.312;25.288;2023-08-21T00:13:15;96519.81;;;19.79;58.56
50394;BME280;36308;46.312;25.288;2023-08-21T00:15:41;96525.28;;;19.79;58.55
50394;BME280;36308;46.312;25.288;2023-08-21T00:18:06;96528.13;;;19.74;58.58
50394;BME280;36308;46.312;25.288;2023-08-21T00:20:32;96536.31;;;19.74;58.76
50394;BME280;36308;46.312;25.288;2023-08-21T00:22:57;96527.91;;;19.71;58.88
50394;BME280;36308;46.312;25.288;2023-08-21T00:25:23;96521.41;;;19.67;58.97
50394;BME280;36308;46.312;25.288;2023-08-21T00:27:49;96533.63;;;19.69;59.14
50394;BME280;36308;46.312;25.288;2023-08-21T00:30:14;96529.94;;;19.65;58.88
50394;BME280;36308;46.312;25.288;2023-08-21T00:32:43;96526.69;;;19.63;59.20
50394;BME280;36308;46.312;25.288;2023-08-21T00:35:08;96530.31;;;19.58;59.15
50394;BME280;36308;46.312;25.288;2023-08-21T00:37:34;96532.53;;;19.56;59.35
50394;BME280;36308;46.312;25.288;2023-08-21T00:39:59;96529.13;;;19.51;59.24
50394;BME280;36308;46.312;25.288;2023-08-21T00:42:25;96527.50;;;19.50;59.38
50394;BME280;36308;46.312;25.288;2023-08-21T00:44:50;96538.41;;;19.50;59.46
50394;BME280;36308;46.312;25.288;2023-08-21T00:47:16;96530.34;;;19.45;59.55
50394;BME280;36308;46.312;25.288;2023-08-21T00:49:42;96525.06;;;19.34;59.45
50394;BME280;36308;46.312;25.288;2023-08-21T00:52:11;96539.09;;;19.42;59.58
50394;BME280;36308;46.312;25.288;2023-08-21T00:54:37;96537.28;;;19.37;59.62
50394;BME280;36308;46.312;25.288;2023-08-21T00:57:03;96530.31;;;19.31;59.68
50394;BME280;36308;46.312;25.288;2023-08-21T00:59:30;96535.75;;;19.31;59.81
50394;BME280;36308;46.312;25.288;2023-08-21T01:01:55;96532.81;;;19.27;60.10
50394;BME280;36308;46.312;25.288;2023-08-21T01:04:21;96523.63;;;19.23;60.11
50394;BME280;36308;46.312;25.288;2023-08-21T01:06:48;96535.38;;;19.24;59.93
50394;BME280;36308;46.312;25.288;2023-08-21T01:09:24;96532.44;;;19.20;59.96
50394;BME280;36308;46.312;25.288;2023-08-21T01:12:07;96531.91;;;19.18;59.99
50394;BME280;36308;46.312;25.288;2023-08-21T01:14:59;96510.69;;;19.01;60.21
50394;BME280;36308;46.312;25.288;2023-08-21T01:17:25;96528.75;;;19.11;59.99
50394;BME280;36308;46.312;25.288;2023-08-21T01:19:52;96534.31;;;19.06;60.16
50394;BME280;36308;46.312;25.288;2023-08-21T01:22:18;96538.13;;;19.05;60.08
50394;BME280;36308;46.312;25.288;2023-08-21T01:24:44;96533.00;;;19.03;60.21
50394;BME280;36308;46.312;25.288;2023-08-21T01:27:10;96535.50;;;19.00;60.23
50394;BME280;36308;46.312;25.288;2023-08-21T01:29:37;96531.84;;;18.90;60.29
50394;BME280;36308;46.312;25.288;2023-08-21T01:32:23;96541.03;;;18.94;60.49
50394;BME280;36308;46.312;25.288;2023-08-21T01:34:54;96537.28;;;18.90;60.36
50394;BME280;36308;46.312;25.288;2023-08-21T01:37:21;96534.88;;;18.89;60.53
50394;BME280;36308;46.312;25.288;2023-08-21T01:39:46;96532.47;;;18.87;60.60
50394;BME280;36308;46.312;25.288;2023-08-21T01:42:12;96527.91;;;18.83;60.73
50394;BME280;36308;46.312;25.288;2023-08-21T01:44:37;96530.41;;;18.79;60.86
50394;BME280;36308;46.312;25.288;2023-08-21T01:47:03;96532.84;;;18.81;60.88
50394;BME280;36308;46.312;25.288;2023-08-21T01:49:29;96538.03;;;18.77;60.83
50394;BME280;36308;46.312;25.288;2023-08-21T01:51:54;96534.81;;;18.75;60.94
50394;BME280;36308;46.312;25.288;2023-08-21T01:54:20;96534.28;;;18.73;61.13
50394;BME280;36308;46.312;25.288;2023-08-21T01:56:45;96532.19;;;18.70;61.16
50394;BME280;36308;46.312;25.288;2023-08-21T01:59:11;96528.50;;;18.61;61.23
50394;BME280;36308;46.312;25.288;2023-08-21T02:01:36;96541.44;;;18.69;61.25
50394;BME280;36308;46.312;25.288;2023-08-21T02:04:02;96531.97;;;18.66;61.26
50394;BME280;36308;46.312;25.288;2023-08-21T02:06:27;96536.59;;;18.66;61.21
50394;BME280;36308;46.312;25.288;2023-08-21T02:08:53;96531.91;;;18.52;61.32
50394;BME280;36308;46.312;25.288;2023-08-21T02:11:18;96543.25;;;18.60;61.39
50394;BME280;36308;46.312;25.288;2023-08-21T02:13:44;96544.03;;;18.60;61.41
50394;BME280;36308;46.312;25.288;2023-08-21T02:16:09;96544.31;;;18.58;61.56
50394;BME280;36308;46.312;25.288;2023-08-21T02:18:35;96544.63;;;18.57;61.50
50394;BME280;36308;46.312;25.288;2023-08-21T02:21:01;96537.56;;;18.56;61.68
50394;BME280;36308;46.312;25.288;2023-08-21T02:23:27;96538.97;;;18.53;61.69
50394;BME280;36308;46.312;25.288;2023-08-21T02:25:53;96538.47;;;18.51;61.69
50394;BME280;36308;46.312;25.288;2023-08-21T02:28:18;96525.00;;;18.41;61.65
50394;BME280;36308;46.312;25.288;2023-08-21T02:30:45;96533.88;;;18.47;61.88
50394;BME280;36308;46.312;25.288;2023-08-21T02:33:10;96533.69;;;18.43;61.84
50394;BME280;36308;46.312;25.288;2023-08-21T02:35:36;96515.88;;;18.32;61.98
50394;BME280;36308;46.312;25.288;2023-08-21T02:38:01;96511.03;;;18.29;61.89
50394;BME280;36308;46.312;25.288;2023-08-21T02:40:27;96532.66;;;18.39;61.89
50394;BME280;36308;46.312;25.288;2023-08-21T02:42:52;96514.84;;;18.28;62.21
50394;BME280;36308;46.312;25.288;2023-08-21T02:45:18;96531.03;;;18.38;62.09
50394;BME280;36308;46.312;25.288;2023-08-21T02:47:44;96521.53;;;18.35;62.18
50394;BME280;36308;46.312;25.288;2023-08-21T02:50:10;96526.19;;;18.35;62.23
50394;BME280;36308;46.312;25.288;2023-08-21T02:52:36;96523.53;;;18.30;62.22
50394;BME280;36308;46.312;25.288;2023-08-21T02:55:03;96520.28;;;18.28;62.09
50394;BME280;36308;46.312;25.288;2023-08-21T02:57:29;96524.66;;;18.29;62.21
50394;BME280;36308;46.312;25.288;2023-08-21T02:59:55;96531.78;;;18.25;62.28
50394;BME280;36308;46.312;25.288;2023-08-21T03:02:21;96538.31;;;18.24;62.38
50394;BME280;36308;46.312;25.288;2023-08-21T03:04:47;96543.47;;;18.25;62.45
50394;BME280;36308;46.312;25.288;2023-08-21T03:07:13;96543.75;;;18.24;62.40
50394;BME280;36308;46.312;25.288;2023-08-21T03:09:40;96543.25;;;18.22;62.03
50394;BME280;36308;46.312;25.288;2023-08-21T03:12:06;96548.16;;;18.20;62.58
50394;BME280;36308;46.312;25.288;2023-08-21T03:14:32;96542.22;;;18.17;62.36
50394;BME280;36308;46.312;25.288;2023-08-21T03:16:57;96538.97;;;18.15;62.63
50394;BME280;36308;46.312;25.288;2023-08-21T03:19:23;96523.38;;;18.02;62.52
50394;BME280;36308;46.312;25.288;2023-08-21T03:21:49;96543.91;;;18.13;62.68
50394;BME280;36308;46.312;25.288;2023-08-21T03:24:14;96543.38;;;18.11;62.63
50394;BME280;36308;46.312;25.288;2023-08-21T03:26:40;96550.22;;;18.09;62.22
50394;BME280;36308;46.312;25.288;2023-08-21T03:29:05;96549.19;;;18.05;62.71
50394;BME280;36308;46.312;25.288;2023-08-21T03:31:31;96550.59;;;18.02;62.72
50394;BME280;36308;46.312;25.288;2023-08-21T03:33:56;96558.25;;;18.00;62.91
50394;BME280;36308;46.312;25.288;2023-08-21T03:36:23;96550.66;;;17.97;62.82
50394;BME280;36308;46.312;25.288;2023-08-21T03:39:00;96552.38;;;17.93;63.06
50394;BME280;36308;46.312;25.288;2023-08-21T03:41:27;96555.38;;;17.91;62.97
50394;BME280;36308;46.312;25.288;2023-08-21T03:43:52;96559.47;;;17.89;63.07
50394;BME280;36308;46.312;25.288;2023-08-21T03:46:18;96564.16;;;17.83;63.15
50394;BME280;36308;46.312;25.288;2023-08-21T03:48:43;96569.84;;;17.87;63.09
50394;BME280;36308;46.312;25.288;2023-08-21T03:51:09;96563.88;;;17.85;63.26
50394;BME280;36308;46.312;25.288;2023-08-21T03:53:34;96538.47;;;17.70;63.22
50394;BME280;36308;46.312;25.288;2023-08-21T03:56:00;96563.91;;;17.80;63.19
50394;BME280;36308;46.312;25.288;2023-08-21T03:58:26;96546.09;;;17.68;63.47
50394;BME280;36308;46.312;25.288;2023-08-21T04:00:52;96566.09;;;17.77;63.79
50394;BME280;36308;46.312;25.288;2023-08-21T04:03:19;96574.78;;;17.80;63.82
50394;BME280;36308;46.312;25.288;2023-08-21T04:05:44;96574.78;;;17.80;64.03
50394;BME280;36308;46.312;25.288;2023-08-21T04:08:10;96573.19;;;17.78;63.96
50394;BME280;36308;46.312;25.288;2023-08-21T04:10:35;96570.47;;;17.78;64.10
50394;BME280;36308;46.312;25.288;2023-08-21T04:13:01;96569.34;;;17.80;64.13
50394;BME280;36308;46.312;25.288;2023-08-21T04:15:27;96573.38;;;17.82;64.44
50394;BME280;36308;46.312;25.288;2023-08-21T04:17:52;96576.66;;;17.84;64.35
50394;BME280;36308;46.312;25.288;2023-08-21T04:20:20;96579.38;;;17.84;64.56
50394;BME280;36308;46.312;25.288;2023-08-21T04:22:47;96558.75;;;17.78;64.63
50394;BME280;36308;46.312;25.288;2023-08-21T04:25:12;96573.66;;;17.86;64.45
50394;BME280;36308;46.312;25.288;2023-08-21T04:27:38;96561.69;;;17.82;64.60
50394;BME280;36308;46.312;25.288;2023-08-21T04:30:04;96581.75;;;17.91;64.67
50394;BME280;36308;46.312;25.288;2023-08-21T04:32:30;96576.53;;;17.94;64.78
50394;BME280;36308;46.312;25.288;2023-08-21T04:34:56;96577.34;;;17.95;64.95
50394;BME280;36308;46.312;25.288;2023-08-21T04:37:21;96575.13;;;17.97;65.01
50394;BME280;36308;46.312;25.288;2023-08-21T04:39:50;96572.13;;;17.98;65.02
50394;BME280;36308;46.312;25.288;2023-08-21T04:42:16;96582.66;;;18.05;65.06
50394;BME280;36308;46.312;25.288;2023-08-21T04:44:42;96593.75;;;18.09;65.20
50394;BME280;36308;46.312;25.288;2023-08-21T04:47:24;96589.13;;;18.09;65.13
50394;BME280;36308;46.312;25.288;2023-08-21T04:49:54;96587.94;;;18.15;64.43
50394;BME280;36308;46.312;25.288;2023-08-21T04:52:20;96573.31;;;18.11;64.61
50394;BME280;36308;46.312;25.288;2023-08-21T04:54:47;96578.09;;;18.20;64.52
50394;BME280;36308;46.312;25.288;2023-08-21T04:57:13;96582.38;;;18.26;64.39
50394;BME280;36308;46.312;25.288;2023-08-21T04:59:39;96576.34;;;18.29;64.48
50394;BME280;36308;46.312;25.288;2023-08-21T05:02:04;96574.97;;;18.31;64.47
50394;BME280;36308;46.312;25.288;2023-08-21T05:04:30;96584.66;;;18.37;64.65
50394;BME280;36308;46.312;25.288;2023-08-21T05:06:56;96589.50;;;18.41;64.69
50394;BME280;36308;46.312;25.288;2023-08-21T05:09:21;96583.88;;;18.37;64.84
50394;BME280;36308;46.312;25.288;2023-08-21T05:11:47;96587.25;;;18.48;64.36
50394;BME280;36308;46.312;25.288;2023-08-21T05:14:12;96576.63;;;18.46;64.62
50394;BME280;36308;46.312;25.288;2023-08-21T05:16:38;96587.91;;;18.58;64.99
50394;BME280;36308;46.312;25.288;2023-08-21T05:19:03;96582.97;;;18.61;64.55
50394;BME280;36308;46.312;25.288;2023-08-21T05:21:29;96568.31;;;18.56;64.40
50394;BME280;36308;46.312;25.288;2023-08-21T05:23:55;96583.31;;;18.73;64.25
50394;BME280;36308;46.312;25.288;2023-08-21T05:26:20;96591.97;;;18.80;64.31
50394;BME280;36308;46.312;25.288;2023-08-21T05:28:46;96587.53;;;18.84;64.29
50394;BME280;36308;46.312;25.288;2023-08-21T05:31:11;96587.44;;;18.89;63.90
50394;BME280;36308;46.312;25.288;2023-08-21T05:33:37;96560.88;;;18.81;63.83
50394;BME280;36308;46.312;25.288;2023-08-21T05:36:03;96586.16;;;19.01;63.31
50394;BME280;36308;46.312;25.288;2023-08-21T05:38:28;96568.00;;;18.96;63.08
50394;BME280;36308;46.312;25.288;2023-08-21T05:40:54;96585.19;;;19.10;63.36
50394;BME280;36308;46.312;25.288;2023-08-21T05:43:19;96588.66;;;19.16;63.48
50394;BME280;36308;46.312;25.288;2023-08-21T05:45:45;96583.59;;;19.23;63.65
50394;BME280;36308;46.312;25.288;2023-08-21T05:48:10;96584.03;;;19.30;63.60
50394;BME280;36308;46.312;25.288;2023-08-21T05:50:36;96585.56;;;19.36;63.53
50394;BME280;36308;46.312;25.288;2023-08-21T05:53:06;96585.16;;;19.43;63.49
50394;BME280;36308;46.312;25.288;2023-08-21T05:55:32;96578.22;;;19.51;63.29
50394;BME280;36308;46.312;25.288;2023-08-21T05:57:58;96583.56;;;19.56;63.36
50394;BME280;36308;46.312;25.288;2023-08-21T06:00:23;96591.03;;;19.64;63.32
50394;BME280;36308;46.312;25.288;2023-08-21T06:02:49;96591.97;;;19.73;63.45
50394;BME280;36308;46.312;25.288;2023-08-21T06:05:15;96596.72;;;19.82;63.29
50394;BME280;36308;46.312;25.288;2023-08-21T06:07:40;96588.94;;;19.89;63.17
50394;BME280;36308;46.312;25.288;2023-08-21T06:10:09;96592.56;;;19.98;63.17
50394;BME280;36308;46.312;25.288;2023-08-21T06:12:41;96591.84;;;20.06;62.88
50394;BME280;36308;46.312;25.288;2023-08-21T06:15:08;96594.38;;;20.16;62.49
50394;BME280;36308;46.312;25.288;2023-08-21T06:17:37;96594.78;;;20.24;62.55
50394;BME280;36308;46.312;25.288;2023-08-21T06:20:03;96598.09;;;20.34;62.03
50394;BME280;36308;46.312;25.288;2023-08-21T06:22:34;96600.91;;;20.43;61.83
50394;BME280;36308;46.312;25.288;2023-08-21T06:24:59;96597.94;;;20.53;61.45
50394;BME280;36308;46.312;25.288;2023-08-21T06:27:25;96596.13;;;20.63;61.05
50394;BME280;36308;46.312;25.288;2023-08-21T06:29:51;96595.06;;;20.72;60.82
50394;BME280;36308;46.312;25.288;2023-08-21T06:32:16;96592.41;;;20.81;60.62
50394;BME280;36308;46.312;25.288;2023-08-21T06:34:42;96596.81;;;20.91;60.21
50394;BME280;36308;46.312;25.288;2023-08-21T06:37:07;96599.81;;;21.03;60.33
50394;BME280;36308;46.312;25.288;2023-08-21T06:39:33;96600.66;;;21.12;60.04
50394;BME280;36308;46.312;25.288;2023-08-21T06:41:59;96587.97;;;21.16;60.00
50394;BME280;36308;46.312;25.288;2023-08-21T06:44:25;96598.25;;;21.33;59.44
50394;BME280;36308;46.312;25.288;2023-08-21T06:46:51;96596.56;;;21.46;58.87
50394;BME280;36308;46.312;25.288;2023-08-21T06:49:16;96607.25;;;21.56;58.77
50394;BME280;36308;46.312;25.288;2023-08-21T06:51:43;96588.59;;;21.58;58.58
50394;BME280;36308;46.312;25.288;2023-08-21T06:54:08;96594.91;;;21.76;58.19
50394;BME280;36308;46.312;25.288;2023-08-21T06:56:34;96590.78;;;21.88;58.05
50394;BME280;36308;46.312;25.288;2023-08-21T06:58:59;96593.72;;;22.00;57.69
50394;BME280;36308;46.312;25.288;2023-08-21T07:01:25;96591.19;;;22.12;57.47
50394;BME280;36308;46.312;25.288;2023-08-21T07:03:50;96593.63;;;22.23;57.22
50394;BME280;36308;46.312;25.288;2023-08-21T07:06:16;96591.56;;;22.37;56.94
50394;BME280;36308;46.312;25.288;2023-08-21T07:08:41;96582.41;;;22.50;56.49
50394;BME280;36308;46.312;25.288;2023-08-21T07:11:07;96572.91;;;22.56;56.32
50394;BME280;36308;46.312;25.288;2023-08-21T07:13:37;96580.00;;;22.75;56.12
50394;BME280;36308;46.312;25.288;2023-08-21T07:16:03;96590.47;;;22.90;56.18
50394;BME280;36308;46.312;25.288;2023-08-21T07:18:32;96580.16;;;23.05;55.95
50394;BME280;36308;46.312;25.288;2023-08-21T07:20:58;96583.84;;;23.17;55.52
50394;BME280;36308;46.312;25.288;2023-08-21T07:23:24;96582.50;;;23.32;55.40
50394;BME280;36308;46.312;25.288;2023-08-21T07:25:49;96577.63;;;23.47;54.71
50394;BME280;36308;46.312;25.288;2023-08-21T07:28:15;96580.50;;;23.59;53.95
50394;BME280;36308;46.312;25.288;2023-08-21T07:30:40;96570.78;;;23.70;53.85
50394;BME280;36308;46.312;25.288;2023-08-21T07:33:06;96572.19;;;23.85;53.34
50394;BME280;36308;46.312;25.288;2023-08-21T07:35:32;96571.97;;;23.99;53.20
50394;BME280;36308;46.312;25.288;2023-08-21T07:37:58;96568.63;;;24.14;52.82
50394;BME280;36308;46.312;25.288;2023-08-21T07:40:24;96573.06;;;24.28;52.53
50394;BME280;36308;46.312;25.288;2023-08-21T07:42:49;96577.19;;;24.43;52.37
50394;BME280;36308;46.312;25.288;2023-08-21T07:45:15;96571.91;;;24.58;52.09
50394;BME280;36308;46.312;25.288;2023-08-21T07:47:40;96561.69;;;24.68;51.68
50394;BME280;36308;46.312;25.288;2023-08-21T07:50:06;96577.34;;;24.88;50.95
50394;BME280;36308;46.312;25.288;2023-08-21T07:52:33;96570.75;;;25.01;50.52
50394;BME280;36308;46.312;25.288;2023-08-21T07:54:58;96580.44;;;25.20;50.40
50394;BME280;36308;46.312;25.288;2023-08-21T07:57:27;96571.09;;;25.33;49.76
50394;BME280;36308;46.312;25.288;2023-08-21T07:59:53;96570.19;;;25.41;50.03
50394;BME280;36308;46.312;25.288;2023-08-21T08:02:19;96573.47;;;25.68;49.37
50394;BME280;36308;46.312;25.288;2023-08-21T08:04:44;96568.09;;;25.84;49.32
50394;BME280;36308;46.312;25.288;2023-08-21T08:07:10;96558.81;;;26.01;48.28
50394;BME280;36308;46.312;25.288;2023-08-21T08:09:36;96563.41;;;26.21;48.37
50394;BME280;36308;46.312;25.288;2023-08-21T08:12:02;96566.22;;;26.37;47.81
50394;BME280;36308;46.312;25.288;2023-08-21T08:14:27;96561.06;;;26.48;47.43
50394;BME280;36308;46.312;25.288;2023-08-21T08:16:53;96570.53;;;26.75;47.08
50394;BME280;36308;46.312;25.288;2023-08-21T08:19:18;96573.34;;;26.91;46.94
50394;BME280;36308;46.312;25.288;2023-08-21T08:21:44;96566.75;;;27.08;46.61
50394;BME280;36308;46.312;25.288;2023-08-21T08:24:09;96565.72;;;27.29;46.65
50394;BME280;36308;46.312;25.288;2023-08-21T08:26:35;96574.03;;;27.45;46.47
50394;BME280;36308;46.312;25.288;2023-08-21T08:29:01;96553.75;;;27.53;45.81
50394;BME280;36308;46.312;25.288;2023-08-21T08:31:26;96567.38;;;27.77;45.39
50394;BME280;36308;46.312;25.288;2023-08-21T08:33:54;96566.97;;;27.91;44.66
50394;BME280;36308;46.312;25.288;2023-08-21T08:36:19;96560.47;;;27.99;44.21
50394;BME280;36308;46.312;25.288;2023-08-21T08:38:45;96560.97;;;28.21;44.17
50394;BME280;36308;46.312;25.288;2023-08-21T08:41:30;96562.97;;;28.40;43.88
50394;BME280;36308;46.312;25.288;2023-08-21T08:43:59;96565.78;;;28.59;43.69
50394;BME280;36308;46.312;25.288;2023-08-21T08:46:29;96560.56;;;28.74;43.35
50394;BME280;36308;46.312;25.288;2023-08-21T08:48:54;96568.88;;;28.93;42.82
50394;BME280;36308;46.312;25.288;2023-08-21T08:51:24;96564.41;;;29.08;42.19
50394;BME280;36308;46.312;25.288;2023-08-21T08:53:49;96549.66;;;29.20;41.90
50394;BME280;36308;46.312;25.288;2023-08-21T08:56:15;96553.06;;;29.33;41.72
50394;BME280;36308;46.312;25.288;2023-08-21T08:58:40;96555.25;;;29.47;41.75
50394;BME280;36308;46.312;25.288;2023-08-21T09:01:08;96558.28;;;29.61;41.59
50394;BME280;36308;46.312;25.288;2023-08-21T09:03:36;96554.63;;;29.76;42.02
50394;BME280;36308;46.312;25.288;2023-08-21T09:06:01;96547.00;;;29.93;40.86
50394;BME280;36308;46.312;25.288;2023-08-21T09:08:29;96544.00;;;30.05;41.02
50394;BME280;36308;46.312;25.288;2023-08-21T09:10:54;96542.69;;;30.22;40.35
50394;BME280;36308;46.312;25.288;2023-08-21T09:13:20;96542.91;;;30.36;40.21
50394;BME280;36308;46.312;25.288;2023-08-21T09:15:47;96536.44;;;30.55;40.21
50394;BME280;36308;46.312;25.288;2023-08-21T09:18:13;96539.00;;;30.71;39.69
50394;BME280;36308;46.312;25.288;2023-08-21T09:20:41;96546.00;;;30.88;39.28
50394;BME280;36308;46.312;25.288;2023-08-21T09:23:07;96532.72;;;31.05;39.07
50394;BME280;36308;46.312;25.288;2023-08-21T09:25:37;96537.66;;;31.22;38.62
50394;BME280;36308;46.312;25.288;2023-08-21T09:28:09;96533.06;;;31.40;37.89
50394;BME280;36308;46.312;25.288;2023-08-21T09:30:52;96544.00;;;31.60;38.20
50394;BME280;36308;46.312;25.288;2023-08-21T09:33:22;96544.97;;;31.78;37.22
50394;BME280;36308;46.312;25.288;2023-08-21T09:35:48;96546.28;;;31.95;36.81
50394;BME280;36308;46.312;25.288;2023-08-21T09:38:16;96538.50;;;32.12;36.51
50394;BME280;36308;46.312;25.288;2023-08-21T09:40:44;96548.97;;;32.33;35.55
50394;BME280;36308;46.312;25.288;2023-08-21T09:43:16;96536.34;;;32.53;35.23
50394;BME280;36308;46.312;25.288;2023-08-21T09:45:46;96538.88;;;32.73;35.24
50394;BME280;36308;46.312;25.288;2023-08-21T09:48:13;96535.78;;;32.92;34.70
50394;BME280;36308;46.312;25.288;2023-08-21T09:50:39;96542.63;;;33.13;34.46
50394;BME280;36308;46.312;25.288;2023-08-21T09:53:09;96534.31;;;33.31;34.11
50394;BME280;36308;46.312;25.288;2023-08-21T09:55:35;96532.75;;;33.51;34.01
50394;BME280;36308;46.312;25.288;2023-08-21T09:58:02;96543.16;;;33.72;33.73
50394;BME280;36308;46.312;25.288;2023-08-21T10:00:32;96536.41;;;33.91;33.10
50394;BME280;36308;46.312;25.288;2023-08-21T10:03:06;96529.59;;;34.03;32.84
50394;BME280;36308;46.312;25.288;2023-08-21T10:05:34;96532.03;;;34.15;32.57
50394;BME280;36308;46.312;25.288;2023-08-21T10:08:02;96522.06;;;34.29;32.75
50394;BME280;36308;46.312;25.288;2023-08-21T10:10:33;96524.00;;;34.46;32.74
50394;BME280;36308;46.312;25.288;2023-08-21T10:12:59;96520.75;;;34.66;32.63
50394;BME280;36308;46.312;25.288;2023-08-21T10:15:27;96526.28;;;34.87;33.01
50394;BME280;36308;46.312;25.288;2023-08-21T10:17:53;96527.00;;;35.06;32.38
50394;BME280;36308;46.312;25.288;2023-08-21T10:20:24;96520.53;;;35.23;31.28
50394;BME280;36308;46.312;25.288;2023-08-21T10:22:52;96524.00;;;35.41;31.16
50394;BME280;36308;46.312;25.288;2023-08-21T10:25:23;96524.31;;;35.58;30.77
50394;BME280;36308;46.312;25.288;2023-08-21T10:28:00;96522.59;;;35.75;30.80
50394;BME280;36308;46.312;25.288;2023-08-21T10:30:28;96518.44;;;35.94;30.93
50394;BME280;36308;46.312;25.288;2023-08-21T10:32:56;96514.31;;;36.09;29.92
50394;BME280;36308;46.312;25.288;2023-08-21T10:35:31;96522.25;;;36.21;29.31
50394;BME280;36308;46.312;25.288;2023-08-21T10:38:17;96510.88;;;36.36;28.72
50394;BME280;36308;46.312;25.288;2023-08-21T10:41:03;96514.75;;;36.49;28.47
50394;BME280;36308;46.312;25.288;2023-08-21T10:43:45;96505.09;;;36.50;28.63
50394;BME280;36308;46.312;25.288;2023-08-21T10:46:12;96508.22;;;36.59;28.17
50394;BME280;36308;46.312;25.288;2023-08-21T10:48:39;96504.19;;;36.60;27.91
50394;BME280;36308;46.312;25.288;2023-08-21T10:51:06;96501.84;;;36.59;27.89
50394;BME280;36308;46.312;25.288;2023-08-21T10:53:33;96506.59;;;36.66;28.35
50394;BME280;36308;46.312;25.288;2023-08-21T10:56:03;96508.13;;;36.70;28.60
50394;BME280;36308;46.312;25.288;2023-08-21T10:58:41;96500.06;;;36.76;29.12
50394;BME280;36308;46.312;25.288;2023-08-21T11:01:06;96502.47;;;36.74;29.08
50394;BME280;36308;46.312;25.288;2023-08-21T11:03:32;96493.56;;;36.83;29.43
50394;BME280;36308;46.312;25.288;2023-08-21T11:06:05;96487.81;;;36.93;28.34
50394;BME280;36308;46.312;25.288;2023-08-21T11:08:32;96494.81;;;37.09;28.72
50394;BME280;36308;46.312;25.288;2023-08-21T11:10:59;96495.44;;;37.24;28.97
50394;BME280;36308;46.312;25.288;2023-08-21T11:13:25;96493.22;;;37.38;28.61
50394;BME280;36308;46.312;25.288;2023-08-21T11:16:04;96494.94;;;37.56;28.72
50394;BME280;36308;46.312;25.288;2023-08-21T11:18:37;96490.00;;;37.67;28.11
50394;BME280;36308;46.312;25.288;2023-08-21T11:21:10;96495.38;;;37.81;28.82
50394;BME280;36308;46.312;25.288;2023-08-21T11:23:38;96494.41;;;37.92;28.80
50394;BME280;36308;46.312;25.288;2023-08-21T11:26:05;96494.97;;;38.07;29.36
50394;BME280;36308;46.312;25.288;2023-08-21T11:28:31;96485.84;;;38.22;28.27
50394;BME280;36308;46.312;25.288;2023-08-21T11:30:57;96486.28;;;38.41;28.46
50394;BME280;36308;46.312;25.288;2023-08-21T11:33:23;96488.44;;;38.57;27.95
50394;BME280;36308;46.312;25.288;2023-08-21T11:35:49;96477.34;;;38.70;27.73
50394;BME280;36308;46.312;25.288;2023-08-21T11:38:18;96479.06;;;38.84;27.12
50394;BME280;36308;46.312;25.288;2023-08-21T11:40:58;96472.41;;;38.94;27.19
50394;BME280;36308;46.312;25.288;2023-08-21T11:43:37;96481.00;;;39.07;27.25
50394;BME280;36308;46.312;25.288;2023-08-21T11:46:04;96468.28;;;39.18;26.54
50394;BME280;36308;46.312;25.288;2023-08-21T11:48:30;96469.78;;;39.23;26.29
50394;BME280;36308;46.312;25.288;2023-08-21T11:50:56;96476.47;;;39.29;26.27
50394;BME280;36308;46.312;25.288;2023-08-21T11:55:58;96456.44;;;39.27;25.48
50394;BME280;36308;46.312;25.288;2023-08-21T11:58:26;96452.56;;;39.21;25.09
50394;BME280;36308;46.312;25.288;2023-08-21T12:00:52;96460.38;;;39.30;25.08
50394;BME280;36308;46.312;25.288;2023-08-21T12:03:18;96458.72;;;39.32;25.01
50394;BME280;36308;46.312;25.288;2023-08-21T12:05:44;96444.41;;;39.27;25.45
50394;BME280;36308;46.312;25.288;2023-08-21T12:08:09;96458.56;;;39.39;25.10
50394;BME280;36308;46.312;25.288;2023-08-21T12:10:36;96455.31;;;39.41;24.77
50394;BME280;36308;46.312;25.288;2023-08-21T12:13:01;96455.31;;;39.41;24.53
50394;BME280;36308;46.312;25.288;2023-08-21T12:15:27;96451.72;;;39.40;25.07
50394;BME280;36308;46.312;25.288;2023-08-21T12:17:53;96451.22;;;39.46;24.75
50394;BME280;36308;46.312;25.288;2023-08-21T12:20:18;96443.34;;;39.37;24.52
50394;BME280;36308;46.312;25.288;2023-08-21T12:22:44;96436.84;;;39.40;24.73
50394;BME280;36308;46.312;25.288;2023-08-21T12:25:10;96450.31;;;39.49;24.42
50394;BME280;36308;46.312;25.288;2023-08-21T12:27:36;96451.22;;;39.46;24.58
50394;BME280;36308;46.312;25.288;2023-08-21T12:30:02;96458.41;;;39.47;24.70
50394;BME280;36308;46.312;25.288;2023-08-21T12:32:27;96455.22;;;39.45;24.84
50394;BME280;36308;46.312;25.288;2023-08-21T12:34:53;96452.41;;;39.45;24.92
50394;BME280;36308;46.312;25.288;2023-08-21T12:37:18;96450.84;;;39.44;24.86
50394;BME280;36308;46.312;25.288;2023-08-21T12:39:44;96445.00;;;39.34;25.16
50394;BME280;36308;46.312;25.288;2023-08-21T12:42:09;96442.72;;;39.29;24.78
50394;BME280;36308;46.312;25.288;2023-08-21T12:44:35;96446.41;;;39.26;24.94
50394;BME280;36308;46.312;25.288;2023-08-21T12:47:01;96433.94;;;39.27;24.92
50394;BME280;36308;46.312;25.288;2023-08-21T12:49:26;96442.38;;;39.27;25.18
50394;BME280;36308;46.312;25.288;2023-08-21T12:51:52;96437.47;;;39.31;25.53